sensor_id;sensor_type;location;lat;lon;timestamp;temperature;humidity
43227;DHT22;28839;52.404;9.808;2023-01-20T00:03:44;0.20;99.90
43227;DHT22;28839;52.404;9.808;2023-01-20T00:10:39;0.10;99.90
43227;DHT22;28839;52.404;9.808;2023-01-20T00:17:34;-0.10;99.90
43227;DHT22;28839;52.404;9.808;2023-01-20T00:24:28;-0.20;99.90
43227;DHT22;28839;52.404;9.808;2023-01-20T00:31:24;-0.30;99.90
43227;DHT22;28839;52.404;9.808;2023-01-20T00:38:20;-0.40;99.90
43227;DHT22;28839;52.404;9.808;2023-01-20T00:45:14;-0.60;99.90
43227;DHT22;28839;52.404;9.808;2023-01-20T00:52:08;-0.60;99.90
43227;DHT22;28839;52.404;9.808;2023-01-20T00:59:03;-0.60;99.90
43227;DHT22;28839;52.404;9.808;2023-01-20T01:06:08;-0.60;99.90
43227;DHT22;28839;52.404;9.808;2023-01-20T01:13:03;-0.60;99.90
43227;DHT22;28839;52.404;9.808;2023-01-20T01:19:58;-0.60;99.90
43227;DHT22;28839;52.404;9.808;2023-01-20T01:26:52;-0.90;99.90
43227;DHT22;28839;52.404;9.808;2023-01-20T01:33:47;-1.00;99.90
43227;DHT22;28839;52.404;9.808;2023-01-20T01:40:47;-1.10;99.90
43227;DHT22;28839;52.404;9.808;2023-01-20T01:47:45;-1.10;99.90
43227;DHT22;28839;52.404;9.808;2023-01-20T01:54:40;-1.00;99.90
43227;DHT22;28839;52.404;9.808;2023-01-20T02:01:40;-1.00;99.90
43227;DHT22;28839;52.404;9.808;2023-01-20T02:08:36;-1.00;99.90
43227;DHT22;28839;52.404;9.808;2023-01-20T02:15:34;-1.00;99.90
43227;DHT22;28839;52.404;9.808;2023-01-20T02:22:38;-0.90;99.90
43227;DHT22;28839;52.404;9.808;2023-01-20T02:30:02;-1.10;99.90
43227;DHT22;28839;52.404;9.808;2023-01-20T02:37:04;-0.90;99.90
43227;DHT22;28839;52.404;9.808;2023-01-20T02:44:05;-1.00;99.90
43227;DHT22;28839;52.404;9.808;2023-01-20T02:51:05;-1.10;99.90
43227;DHT22;28839;52.404;9.808;2023-01-20T02:58:06;-1.40;99.90
43227;DHT22;28839;52.404;9.808;2023-01-20T03:05:04;-1.50;99.90
43227;DHT22;28839;52.404;9.808;2023-01-20T03:12:02;-1.60;99.90
43227;DHT22;28839;52.404;9.808;2023-01-20T03:18:58;-1.60;99.90
43227;DHT22;28839;52.404;9.808;2023-01-20T03:25:53;-1.70;99.90
43227;DHT22;28839;52.404;9.808;2023-01-20T03:32:49;-1.60;99.90
43227;DHT22;28839;52.404;9.808;2023-01-20T03:39:46;-1.70;99.90
43227;DHT22;28839;52.404;9.808;2023-01-20T03:46:43;-1.90;99.90
43227;DHT22;28839;52.404;9.808;2023-01-20T03:53:45;-1.80;99.90
43227;DHT22;28839;52.404;9.808;2023-01-20T04:00:44;-1.60;99.90
43227;DHT22;28839;52.404;9.808;2023-01-20T04:07:39;-1.50;99.90
43227;DHT22;28839;52.404;9.808;2023-01-20T04:14:34;-1.60;99.90
43227;DHT22;28839;52.404;9.808;2023-01-20T04:21:33;-1.80;99.90
43227;DHT22;28839;52.404;9.808;2023-01-20T04:28:27;-2.00;99.90
43227;DHT22;28839;52.404;9.808;2023-01-20T04:35:21;-2.00;99.90
43227;DHT22;28839;52.404;9.808;2023-01-20T04:42:16;-2.10;99.90
43227;DHT22;28839;52.404;9.808;2023-01-20T04:49:10;-2.20;99.90
43227;DHT22;28839;52.404;9.808;2023-01-20T04:56:09;-2.20;99.90
43227;DHT22;28839;52.404;9.808;2023-01-20T05:03:05;-2.30;99.90
43227;DHT22;28839;52.404;9.808;2023-01-20T05:09:59;-2.20;99.90
43227;DHT22;28839;52.404;9.808;2023-01-20T05:16:53;-2.30;99.90
43227;DHT22;28839;52.404;9.808;2023-01-20T05:23:48;-2.20;99.90
43227;DHT22;28839;52.404;9.808;2023-01-20T05:30:42;-2.20;99.90
43227;DHT22;28839;52.404;9.808;2023-01-20T05:37:36;-2.10;99.90
43227;DHT22;28839;52.404;9.808;2023-01-20T05:44:31;-2.40;99.90
43227;DHT22;28839;52.404;9.808;2023-01-20T05:51:26;-2.40;99.90
43227;DHT22;28839;52.404;9.808;2023-01-20T05:58:20;-2.20;99.90
43227;DHT22;28839;52.404;9.808;2023-01-20T06:05:16;-2.00;99.90
43227;DHT22;28839;52.404;9.808;2023-01-20T06:12:09;-2.00;99.90
43227;DHT22;28839;52.404;9.808;2023-01-20T06:19:03;-2.00;99.90
43227;DHT22;28839;52.404;9.808;2023-01-20T06:26:00;-2.10;99.90
43227;DHT22;28839;52.404;9.808;2023-01-20T06:32:53;-2.20;99.90
43227;DHT22;28839;52.404;9.808;2023-01-20T06:39:49;-2.30;99.90
43227;DHT22;28839;52.404;9.808;2023-01-20T06:46:44;-2.30;99.90
43227;DHT22;28839;52.404;9.808;2023-01-20T06:53:38;-2.20;99.90
43227;DHT22;28839;52.404;9.808;2023-01-20T07:00:32;-2.00;99.90
43227;DHT22;28839;52.404;9.808;2023-01-20T07:07:27;-1.80;99.90
43227;DHT22;28839;52.404;9.808;2023-01-20T07:14:21;-1.60;99.90
43227;DHT22;28839;52.404;9.808;2023-01-20T07:21:15;-1.60;99.90
43227;DHT22;28839;52.404;9.808;2023-01-20T07:28:11;-1.50;99.90
43227;DHT22;28839;52.404;9.808;2023-01-20T07:35:05;-1.60;99.90
43227;DHT22;28839;52.404;9.808;2023-01-20T07:41:59;-1.60;99.90
43227;DHT22;28839;52.404;9.808;2023-01-20T07:48:54;-1.50;99.90
43227;DHT22;28839;52.404;9.808;2023-01-20T07:55:48;-1.20;99.90
43227;DHT22;28839;52.404;9.808;2023-01-20T08:02:42;-1.00;99.90
43227;DHT22;28839;52.404;9.808;2023-01-20T08:09:37;-1.10;99.90
43227;DHT22;28839;52.404;9.808;2023-01-20T08:16:33;-1.20;99.90
43227;DHT22;28839;52.404;9.808;2023-01-20T08:23:27;-1.20;99.90
43227;DHT22;28839;52.404;9.808;2023-01-20T08:30:22;-1.10;99.90
43227;DHT22;28839;52.404;9.808;2023-01-20T08:37:16;-0.90;99.90
43227;DHT22;28839;52.404;9.808;2023-01-20T08:44:10;-0.70;99.90
43227;DHT22;28839;52.404;9.808;2023-01-20T08:51:08;0.00;99.90
43227;DHT22;28839;52.404;9.808;2023-01-20T08:58:03;0.10;99.90
43227;DHT22;28839;52.404;9.808;2023-01-20T09:04:57;0.30;99.90
43227;DHT22;28839;52.404;9.808;2023-01-20T09:11:52;0.80;99.90
43227;DHT22;28839;52.404;9.808;2023-01-20T09:18:46;1.20;99.90
43227;DHT22;28839;52.404;9.808;2023-01-20T09:32:43;1.50;99.90
43227;DHT22;28839;52.404;9.808;2023-01-20T09:39:37;1.50;99.90
43227;DHT22;28839;52.404;9.808;2023-01-20T09:46:59;1.70;99.90
43227;DHT22;28839;52.404;9.808;2023-01-20T09:54:19;1.50;99.90
43227;DHT22;28839;52.404;9.808;2023-01-20T10:01:18;1.60;99.90
43227;DHT22;28839;52.404;9.808;2023-01-20T10:08:18;1.30;99.90
43227;DHT22;28839;52.404;9.808;2023-01-20T10:15:19;1.40;99.90
43227;DHT22;28839;52.404;9.808;2023-01-20T10:22:18;1.80;99.90
43227;DHT22;28839;52.404;9.808;2023-01-20T10:29:18;1.60;99.90
43227;DHT22;28839;52.404;9.808;2023-01-20T10:36:20;1.80;99.90
43227;DHT22;28839;52.404;9.808;2023-01-20T10:43:16;1.90;99.90
43227;DHT22;28839;52.404;9.808;2023-01-20T10:50:26;2.00;99.90
43227;DHT22;28839;52.404;9.808;2023-01-20T10:57:23;2.20;99.90
43227;DHT22;28839;52.404;9.808;2023-01-20T11:04:19;2.40;99.90
43227;DHT22;28839;52.404;9.808;2023-01-20T11:11:15;2.40;99.90
43227;DHT22;28839;52.404;9.808;2023-01-20T11:18:30;2.50;99.90
43227;DHT22;28839;52.404;9.808;2023-01-20T11:25:26;2.80;99.90
43227;DHT22;28839;52.404;9.808;2023-01-20T11:32:26;2.90;99.90
43227;DHT22;28839;52.404;9.808;2023-01-20T11:39:26;3.20;99.90
43227;DHT22;28839;52.404;9.808;2023-01-20T11:46:26;2.90;99.90
43227;DHT22;28839;52.404;9.808;2023-01-20T11:53:22;2.90;99.90
43227;DHT22;28839;52.404;9.808;2023-01-20T12:00:35;2.90;99.90
43227;DHT22;28839;52.404;9.808;2023-01-20T12:07:34;2.90;99.90
43227;DHT22;28839;52.404;9.808;2023-01-20T12:14:31;3.20;99.90
43227;DHT22;28839;52.404;9.808;2023-01-20T12:21:33;3.20;99.90
43227;DHT22;28839;52.404;9.808;2023-01-20T12:28:33;3.00;99.90
43227;DHT22;28839;52.404;9.808;2023-01-20T12:35:35;3.30;99.90
43227;DHT22;28839;52.404;9.808;2023-01-20T12:42:48;3.00;99.90
43227;DHT22;28839;52.404;9.808;2023-01-20T12:49:53;3.10;99.90
43227;DHT22;28839;52.404;9.808;2023-01-20T12:56:58;2.90;99.90
43227;DHT22;28839;52.404;9.808;2023-01-20T13:04:04;2.90;99.90
43227;DHT22;28839;52.404;9.808;2023-01-20T13:11:13;2.90;99.90
43227;DHT22;28839;52.404;9.808;2023-01-20T13:18:22;3.10;99.90
43227;DHT22;28839;52.404;9.808;2023-01-20T13:25:19;3.30;99.90
43227;DHT22;28839;52.404;9.808;2023-01-20T13:32:29;3.40;99.90
43227;DHT22;28839;52.404;9.808;2023-01-20T13:39:39;3.40;99.90
43227;DHT22;28839;52.404;9.808;2023-01-20T13:46:46;3.50;99.90
43227;DHT22;28839;52.404;9.808;2023-01-20T13:53:40;3.60;99.90
43227;DHT22;28839;52.404;9.808;2023-01-20T14:00:34;3.40;99.90
43227;DHT22;28839;52.404;9.808;2023-01-20T14:07:29;3.10;99.90
43227;DHT22;28839;52.404;9.808;2023-01-20T14:14:25;3.00;99.90
43227;DHT22;28839;52.404;9.808;2023-01-20T14:21:21;3.00;99.90
43227;DHT22;28839;52.404;9.808;2023-01-20T14:28:19;3.10;99.90
43227;DHT22;28839;52.404;9.808;2023-01-20T14:35:15;3.00;99.90
43227;DHT22;28839;52.404;9.808;2023-01-20T14:42:16;3.10;99.90
43227;DHT22;28839;52.404;9.808;2023-01-20T14:49:14;3.00;99.90
43227;DHT22;28839;52.404;9.808;2023-01-20T14:56:17;3.00;99.90
43227;DHT22;28839;52.404;9.808;2023-01-20T15:03:15;2.80;99.90
43227;DHT22;28839;52.404;9.808;2023-01-20T15:10:15;2.50;99.90
43227;DHT22;28839;52.404;9.808;2023-01-20T15:17:09;2.50;99.90
43227;DHT22;28839;52.404;9.808;2023-01-20T15:24:07;2.30;99.90
43227;DHT22;28839;52.404;9.808;2023-01-20T15:31:11;2.30;99.90
43227;DHT22;28839;52.404;9.808;2023-01-20T15:38:08;2.20;99.90
43227;DHT22;28839;52.404;9.808;2023-01-20T15:45:04;2.20;99.90
43227;DHT22;28839;52.404;9.808;2023-01-20T15:52:00;2.20;99.90
43227;DHT22;28839;52.404;9.808;2023-01-20T15:58:54;2.10;99.90
43227;DHT22;28839;52.404;9.808;2023-01-20T16:05:49;2.10;99.90
43227;DHT22;28839;52.404;9.808;2023-01-20T16:12:45;2.20;99.90
43227;DHT22;28839;52.404;9.808;2023-01-20T16:19:39;2.20;99.90
43227;DHT22;28839;52.404;9.808;2023-01-20T16:26:34;2.10;99.90
43227;DHT22;28839;52.404;9.808;2023-01-20T16:33:29;2.10;99.90
43227;DHT22;28839;52.404;9.808;2023-01-20T16:40:23;2.20;99.90
43227;DHT22;28839;52.404;9.808;2023-01-20T16:47:17;2.00;99.90
43227;DHT22;28839;52.404;9.808;2023-01-20T16:54:12;1.90;99.90
43227;DHT22;28839;52.404;9.808;2023-01-20T17:01:06;1.80;99.90
43227;DHT22;28839;52.404;9.808;2023-01-20T17:08:03;1.70;99.90
43227;DHT22;28839;52.404;9.808;2023-01-20T17:14:59;1.70;99.90
43227;DHT22;28839;52.404;9.808;2023-01-20T17:21:52;1.60;99.90
43227;DHT22;28839;52.404;9.808;2023-01-20T17:28:48;1.60;99.90
43227;DHT22;28839;52.404;9.808;2023-01-20T17:35:55;1.40;99.90
43227;DHT22;28839;52.404;9.808;2023-01-20T17:42:52;1.60;99.90
43227;DHT22;28839;52.404;9.808;2023-01-20T17:49:46;1.60;99.90
43227;DHT22;28839;52.404;9.808;2023-01-20T17:56:41;1.40;99.90
43227;DHT22;28839;52.404;9.808;2023-01-20T18:03:35;1.40;99.90
43227;DHT22;28839;52.404;9.808;2023-01-20T18:10:29;1.30;99.90
43227;DHT22;28839;52.404;9.808;2023-01-20T18:17:25;1.30;99.90
43227;DHT22;28839;52.404;9.808;2023-01-20T18:24:18;1.20;99.90
43227;DHT22;28839;52.404;9.808;2023-01-20T18:31:14;1.10;99.90
43227;DHT22;28839;52.404;9.808;2023-01-20T18:38:09;1.10;99.90
43227;DHT22;28839;52.404;9.808;2023-01-20T18:45:04;0.80;99.90
43227;DHT22;28839;52.404;9.808;2023-01-20T18:51:58;0.80;99.90
43227;DHT22;28839;52.404;9.808;2023-01-20T18:58:54;0.70;99.90
43227;DHT22;28839;52.404;9.808;2023-01-20T19:05:48;0.70;99.90
43227;DHT22;28839;52.404;9.808;2023-01-20T19:12:42;0.40;99.90
43227;DHT22;28839;52.404;9.808;2023-01-20T19:19:37;0.40;99.90
43227;DHT22;28839;52.404;9.808;2023-01-20T19:26:32;0.50;99.90
43227;DHT22;28839;52.404;9.808;2023-01-20T19:33:27;0.30;99.90
43227;DHT22;28839;52.404;9.808;2023-01-20T19:40:22;0.10;99.90
43227;DHT22;28839;52.404;9.808;2023-01-20T19:47:16;-0.10;99.90
43227;DHT22;28839;52.404;9.808;2023-01-20T19:54:11;-0.30;99.90
43227;DHT22;28839;52.404;9.808;2023-01-20T20:01:08;-0.30;99.90
43227;DHT22;28839;52.404;9.808;2023-01-20T20:08:02;-0.50;99.90
43227;DHT22;28839;52.404;9.808;2023-01-20T20:14:56;-0.60;99.90
43227;DHT22;28839;52.404;9.808;2023-01-20T20:21:51;-0.70;99.90
43227;DHT22;28839;52.404;9.808;2023-01-20T20:28:46;-0.80;99.90
43227;DHT22;28839;52.404;9.808;2023-01-20T20:35:42;-0.90;99.90
43227;DHT22;28839;52.404;9.808;2023-01-20T20:42:38;-0.90;99.90
43227;DHT22;28839;52.404;9.808;2023-01-20T20:49:31;-0.80;99.90
43227;DHT22;28839;52.404;9.808;2023-01-20T20:56:27;-1.00;99.90
43227;DHT22;28839;52.404;9.808;2023-01-20T21:03:24;-1.20;99.90
43227;DHT22;28839;52.404;9.808;2023-01-20T21:10:19;-1.20;99.90
43227;DHT22;28839;52.404;9.808;2023-01-20T21:17:13;-1.20;99.90
43227;DHT22;28839;52.404;9.808;2023-01-20T21:24:08;-1.50;99.90
43227;DHT22;28839;52.404;9.808;2023-01-20T21:31:06;-1.60;99.90
43227;DHT22;28839;52.404;9.808;2023-01-20T21:38:01;-1.50;99.90
43227;DHT22;28839;52.404;9.808;2023-01-20T21:44:56;-1.60;99.90
43227;DHT22;28839;52.404;9.808;2023-01-20T21:51:50;-1.70;99.90
43227;DHT22;28839;52.404;9.808;2023-01-20T21:59:04;-1.80;99.90
43227;DHT22;28839;52.404;9.808;2023-01-20T22:06:01;-1.90;99.90
43227;DHT22;28839;52.404;9.808;2023-01-20T22:12:55;-1.90;99.90
43227;DHT22;28839;52.404;9.808;2023-01-20T22:19:49;-2.00;99.90
43227;DHT22;28839;52.404;9.808;2023-01-20T22:26:46;-2.10;99.90
43227;DHT22;28839;52.404;9.808;2023-01-20T22:33:40;-2.00;99.90
43227;DHT22;28839;52.404;9.808;2023-01-20T22:40:34;-2.10;99.90
43227;DHT22;28839;52.404;9.808;2023-01-20T22:47:29;-2.10;99.90
43227;DHT22;28839;52.404;9.808;2023-01-20T22:54:23;-2.10;99.90
43227;DHT22;28839;52.404;9.808;2023-01-20T23:01:19;-2.10;99.90
43227;DHT22;28839;52.404;9.808;2023-01-20T23:08:15;-2.10;99.90
43227;DHT22;28839;52.404;9.808;2023-01-20T23:15:09;-2.40;99.90
43227;DHT22;28839;52.404;9.808;2023-01-20T23:22:02;-2.50;99.90
43227;DHT22;28839;52.404;9.808;2023-01-20T23:28:58;-2.40;99.90
43227;DHT22;28839;52.404;9.808;2023-01-20T23:35:52;-2.50;99.90
43227;DHT22;28839;52.404;9.808;2023-01-20T23:42:46;-2.70;99.90
43227;DHT22;28839;52.404;9.808;2023-01-20T23:49:41;-2.70;99.90
43227;DHT22;28839;52.404;9.808;2023-01-20T23:56:35;-2.70;99.90
